createdAt,value
2018-05-02T00:01:10.768Z,99.90
2018-05-02T00:03:39.067Z,99.90
2018-05-02T00:06:06.618Z,99.90
2018-05-02T00:08:34.922Z,99.90
2018-05-02T00:11:02.476Z,99.90
2018-05-02T00:13:30.783Z,99.90
2018-05-02T00:15:58.335Z,99.90
2018-05-02T00:18:26.640Z,99.90
2018-05-02T00:20:54.959Z,99.90
2018-05-02T00:23:22.495Z,99.90
2018-05-02T00:25:50.819Z,99.90
2018-05-02T00:28:18.362Z,99.90
2018-05-02T00:30:45.933Z,99.90
2018-05-02T00:33:13.475Z,99.90
2018-05-02T00:35:41.060Z,99.90
2018-05-02T00:38:09.367Z,99.90
2018-05-02T00:40:37.686Z,99.90
2018-05-02T00:43:05.218Z,99.90
2018-05-02T00:45:33.536Z,99.90
2018-05-02T00:48:01.082Z,99.90
2018-05-02T00:50:29.406Z,99.90
2018-05-02T00:52:56.941Z,99.90
2018-05-02T00:55:24.523Z,99.90
2018-05-02T00:57:52.054Z,99.90
2018-05-02T01:00:19.606Z,99.90
2018-05-02T01:02:47.146Z,99.90
2018-05-02T01:05:14.709Z,99.90
2018-05-02T01:07:43.040Z,99.90
2018-05-02T01:10:10.588Z,99.90
2018-05-02T01:12:38.157Z,99.90
2018-05-02T01:15:05.764Z,99.90
2018-05-02T01:17:33.332Z,99.90
2018-05-02T01:20:00.887Z,99.90
2018-05-02T01:22:28.472Z,99.90
2018-05-02T01:24:56.025Z,99.90
2018-05-02T01:27:23.591Z,99.90
2018-05-02T01:29:51.164Z,99.90
2018-05-02T01:32:18.720Z,99.90
2018-05-02T01:34:46.277Z,99.90
2018-05-02T01:37:14.603Z,99.90
2018-05-02T01:39:42.145Z,99.90
2018-05-02T01:42:09.712Z,99.90
2018-05-02T01:44:38.020Z,99.90
2018-05-02T01:47:05.593Z,99.90
2018-05-02T01:49:33.135Z,99.90
2018-05-02T01:52:01.464Z,99.90
2018-05-02T01:54:29.012Z,99.90
2018-05-02T01:56:56.575Z,99.90
2018-05-02T01:59:24.906Z,99.90
2018-05-02T02:01:52.517Z,99.90
2018-05-02T02:04:20.073Z,99.90
2018-05-02T02:06:47.642Z,99.90
2018-05-02T02:09:15.262Z,99.90
2018-05-02T02:11:42.783Z,99.90
2018-05-02T02:14:10.354Z,99.90
2018-05-02T02:16:37.952Z,99.90
2018-05-02T02:19:05.527Z,99.90
2018-05-02T02:21:33.839Z,99.90
2018-05-02T02:24:01.404Z,99.90
2018-05-02T02:26:28.952Z,99.90
2018-05-02T02:28:56.515Z,99.90
2018-05-02T02:31:24.065Z,99.90
2018-05-02T02:33:51.712Z,99.90
2018-05-02T02:36:19.209Z,99.90
2018-05-02T02:38:46.779Z,99.90
2018-05-02T02:41:14.328Z,99.90
2018-05-02T02:43:41.897Z,99.90
2018-05-02T02:46:09.440Z,99.90
2018-05-02T02:48:37.769Z,99.90
2018-05-02T02:51:05.311Z,99.90
2018-05-02T02:53:33.651Z,99.90
2018-05-02T02:56:01.218Z,99.90
2018-05-02T02:58:28.778Z,99.90
2018-05-02T03:00:56.320Z,99.90
2018-05-02T03:03:23.888Z,99.90
2018-05-02T03:05:51.443Z,99.90
2018-05-02T03:08:19.772Z,99.90
2018-05-02T03:10:47.316Z,99.90
2018-05-02T03:13:15.685Z,99.90
2018-05-02T03:15:43.246Z,99.90
2018-05-02T03:18:10.871Z,99.90
2018-05-02T03:20:38.416Z,99.90
2018-05-02T03:23:06.742Z,99.90
2018-05-02T03:25:34.291Z,99.90
2018-05-02T03:28:01.853Z,99.90
2018-05-02T03:30:29.408Z,99.90
2018-05-02T03:32:58.452Z,99.90
2018-05-02T03:35:25.991Z,99.90
2018-05-02T03:37:54.309Z,99.90
2018-05-02T03:40:21.884Z,99.90
2018-05-02T03:42:49.423Z,99.90
2018-05-02T03:45:17.754Z,99.90
2018-05-02T03:47:45.318Z,99.90
2018-05-02T03:50:12.892Z,99.90
2018-05-02T03:52:40.454Z,99.90
2018-05-02T03:55:08.033Z,99.90
2018-05-02T03:57:35.572Z,99.90
2018-05-02T04:00:15.753Z,99.90
2018-05-02T04:02:56.079Z,99.90
2018-05-02T04:08:30.270Z,99.90
2018-05-02T04:10:57.855Z,99.90
2018-05-02T04:13:26.164Z,99.90
2018-05-02T04:15:53.738Z,99.90
2018-05-02T04:18:21.294Z,99.90
2018-05-02T04:20:49.625Z,99.90
2018-05-02T04:23:17.167Z,99.90
2018-05-02T04:25:44.743Z,99.90
2018-05-02T04:28:12.296Z,99.90
2018-05-02T04:30:40.622Z,99.90
2018-05-02T04:33:08.167Z,99.90
2018-05-02T04:35:35.739Z,99.90
2018-05-02T04:38:03.299Z,99.90
2018-05-02T04:40:31.639Z,99.90
2018-05-02T04:42:59.188Z,99.90
2018-05-02T04:45:26.752Z,99.90
2018-05-02T04:47:54.307Z,99.90
2018-05-02T04:50:21.907Z,99.90
2018-05-02T04:52:49.505Z,99.90
2018-05-02T04:55:17.087Z,99.90
2018-05-02T04:57:44.616Z,99.90
2018-05-02T05:00:12.184Z,99.90
2018-05-02T05:02:39.735Z,99.90
2018-05-02T05:05:08.044Z,99.90
2018-05-02T05:07:35.612Z,99.90
2018-05-02T05:10:03.156Z,99.90
2018-05-02T05:12:31.488Z,99.40
2018-05-02T05:14:59.031Z,99.40
2018-05-02T05:17:27.368Z,97.70
2018-05-02T05:19:55.753Z,96.30
2018-05-02T05:22:23.327Z,96.00
2018-05-02T05:24:50.904Z,93.70
2018-05-02T05:27:18.468Z,93.90
2018-05-02T05:29:46.027Z,93.10
2018-05-02T05:32:13.624Z,93.20
2018-05-02T05:34:41.172Z,91.80
2018-05-02T05:37:08.755Z,91.70
2018-05-02T05:39:36.308Z,91.70
2018-05-02T05:42:03.872Z,91.50
2018-05-02T05:44:31.428Z,91.60
2018-05-02T05:46:59.000Z,94.10
2018-05-02T05:49:26.561Z,94.50
2018-05-02T05:51:54.902Z,95.20
2018-05-02T05:54:23.286Z,95.20
2018-05-02T05:56:51.583Z,94.90
2018-05-02T05:59:19.129Z,94.90
2018-05-02T06:01:46.699Z,95.00
2018-05-02T06:04:14.254Z,90.40
2018-05-02T06:06:41.872Z,91.60
2018-05-02T06:09:09.402Z,91.70
2018-05-02T06:11:36.976Z,92.00
2018-05-02T06:14:04.524Z,91.30
2018-05-02T06:16:32.844Z,89.90
2018-05-02T06:19:00.460Z,89.90
2018-05-02T06:21:28.008Z,90.80
2018-05-02T06:23:55.577Z,92.00
2018-05-02T06:26:23.136Z,90.70
2018-05-02T06:28:50.704Z,88.00
2018-05-02T06:31:18.259Z,89.20
2018-05-02T06:33:45.900Z,89.30
2018-05-02T06:36:13.445Z,90.70
2018-05-02T06:38:41.051Z,88.10
2018-05-02T06:41:08.600Z,85.20
2018-05-02T06:43:36.936Z,85.40
2018-05-02T06:46:05.253Z,83.30
2018-05-02T06:48:32.827Z,83.30
2018-05-02T06:51:00.384Z,73.50
2018-05-02T06:53:27.960Z,69.10
2018-05-02T06:55:55.540Z,67.90
2018-05-02T06:58:23.117Z,61.00
2018-05-02T07:00:50.692Z,60.50
2018-05-02T07:03:18.280Z,59.80
2018-05-02T07:05:45.831Z,53.60
2018-05-02T07:08:13.397Z,58.00
2018-05-02T07:10:40.945Z,55.20
2018-05-02T07:13:08.520Z,52.40
2018-05-02T07:15:36.109Z,50.20
2018-05-02T07:18:03.678Z,49.90
2018-05-02T07:20:31.237Z,52.00
2018-05-02T07:22:58.832Z,51.70
2018-05-02T07:25:26.381Z,45.50
2018-05-02T07:27:53.950Z,44.70
2018-05-02T07:30:21.515Z,36.50
2018-05-02T07:32:49.948Z,37.60
2018-05-02T07:35:17.474Z,37.60
2018-05-02T07:37:45.004Z,40.90
2018-05-02T07:40:12.580Z,38.20
2018-05-02T07:42:40.899Z,39.40
2018-05-02T07:45:09.231Z,42.20
2018-05-02T07:47:36.779Z,42.20
2018-05-02T07:50:04.347Z,39.50
2018-05-02T07:52:32.664Z,41.20
2018-05-02T07:55:00.236Z,41.20
2018-05-02T07:57:27.791Z,40.70
2018-05-02T07:59:55.361Z,40.90
2018-05-02T08:02:22.912Z,40.60
2018-05-02T08:04:51.243Z,40.40
2018-05-02T08:07:18.791Z,40.30
2018-05-02T08:09:46.361Z,40.60
2018-05-02T08:12:13.908Z,39.90
2018-05-02T08:14:42.243Z,41.40
2018-05-02T08:17:09.796Z,41.50
2018-05-02T08:19:37.368Z,41.60
2018-05-02T08:22:04.957Z,42.20
2018-05-02T08:24:32.509Z,41.60
2018-05-02T08:27:00.055Z,40.40
2018-05-02T08:29:28.389Z,40.90
2018-05-02T08:31:55.931Z,40.90
2018-05-02T08:34:24.267Z,41.40
2018-05-02T08:36:51.824Z,41.40
2018-05-02T08:39:19.399Z,39.50
2018-05-02T08:41:46.938Z,40.80
2018-05-02T08:44:14.488Z,41.20
2018-05-02T08:46:42.820Z,37.40
2018-05-02T08:49:10.375Z,37.40
2018-05-02T08:51:37.952Z,39.00
2018-05-02T08:54:05.503Z,39.50
2018-05-02T08:56:33.839Z,40.40
2018-05-02T08:59:01.387Z,40.40
2018-05-02T09:01:28.982Z,40.50
2018-05-02T09:03:56.532Z,39.10
2018-05-02T09:06:24.104Z,40.70
2018-05-02T09:08:51.739Z,40.20
2018-05-02T09:11:19.250Z,41.10
2018-05-02T09:13:46.804Z,39.70
2018-05-02T09:16:15.146Z,40.50
2018-05-02T09:18:42.697Z,40.40
2018-05-02T09:21:10.266Z,40.70
2018-05-02T09:23:37.812Z,40.60
2018-05-02T09:26:05.395Z,41.20
2018-05-02T09:28:32.949Z,39.90
2018-05-02T09:31:01.287Z,42.10
2018-05-02T09:33:28.844Z,42.10
2018-05-02T09:35:56.426Z,44.70
2018-05-02T09:38:23.983Z,46.50
2018-05-02T09:40:51.551Z,41.90
2018-05-02T09:43:19.108Z,41.20
2018-05-02T09:45:46.672Z,43.10
2018-05-02T09:48:14.222Z,38.70
2018-05-02T09:50:41.799Z,38.70
2018-05-02T09:53:10.118Z,39.60
2018-05-02T09:55:37.665Z,39.50
2018-05-02T09:58:06.004Z,40.20
2018-05-02T10:00:34.330Z,38.20
2018-05-02T10:03:02.173Z,37.60
2018-05-02T10:05:29.834Z,39.90
2018-05-02T10:07:57.403Z,39.70
2018-05-02T10:10:24.975Z,40.80
2018-05-02T10:12:52.539Z,41.70
2018-05-02T10:15:20.088Z,43.00
2018-05-02T10:17:48.424Z,41.70
2018-05-02T10:20:15.972Z,41.60
2018-05-02T10:22:43.540Z,41.10
2018-05-02T10:25:11.109Z,44.00
2018-05-02T10:27:38.681Z,44.10
2018-05-02T10:30:06.243Z,42.40
2018-05-02T10:32:33.816Z,43.50
2018-05-02T10:35:01.364Z,44.50
2018-05-02T10:37:29.709Z,45.30
2018-05-02T10:39:57.265Z,45.20
2018-05-02T10:42:24.835Z,45.60
2018-05-02T10:44:52.416Z,44.60
2018-05-02T10:47:19.979Z,45.80
2018-05-02T10:49:47.528Z,48.00
2018-05-02T10:52:15.859Z,46.10
2018-05-02T10:54:43.405Z,46.10
2018-05-02T10:57:11.004Z,45.70
2018-05-02T10:59:38.552Z,48.10
2018-05-02T11:02:06.119Z,47.00
2018-05-02T11:04:33.677Z,47.30
2018-05-02T11:07:02.043Z,48.90
2018-05-02T11:09:29.589Z,48.80
2018-05-02T11:11:57.147Z,48.90
2018-05-02T11:14:24.720Z,53.70
2018-05-02T11:16:52.279Z,53.90
2018-05-02T11:19:19.848Z,52.30
2018-05-02T11:21:47.400Z,49.50
2018-05-02T11:24:14.972Z,51.20
2018-05-02T11:26:42.521Z,52.80
2018-05-02T11:29:10.095Z,51.50
2018-05-02T11:31:37.640Z,51.60
2018-05-02T11:34:05.217Z,51.40
2018-05-02T11:36:32.764Z,50.60
2018-05-02T11:39:00.341Z,52.40
2018-05-02T11:41:28.664Z,54.30
2018-05-02T11:43:56.231Z,54.30
2018-05-02T11:46:23.780Z,57.30
2018-05-02T11:48:51.343Z,54.80
2018-05-02T11:51:18.901Z,53.00
2018-05-02T11:53:46.473Z,55.30
2018-05-02T11:56:14.027Z,55.80
2018-05-02T11:58:41.598Z,54.50
2018-05-02T12:01:09.157Z,54.20
2018-05-02T12:03:37.551Z,51.70
2018-05-02T12:06:05.073Z,51.70
2018-05-02T12:08:32.643Z,53.00
2018-05-02T12:11:00.189Z,54.30
2018-05-02T12:13:27.765Z,55.60
2018-05-02T12:15:55.310Z,55.90
2018-05-02T12:18:22.875Z,55.20
2018-05-02T12:20:51.195Z,53.30
2018-05-02T12:23:18.750Z,53.30
2018-05-02T12:25:46.328Z,54.70
2018-05-02T12:28:13.953Z,53.60
2018-05-02T12:30:41.516Z,55.70
2018-05-02T12:33:09.838Z,56.50
2018-05-02T12:35:38.171Z,55.00
2018-05-02T12:38:05.725Z,55.00
2018-05-02T12:40:33.303Z,57.60
2018-05-02T12:43:00.852Z,57.30
2018-05-02T12:45:28.420Z,58.00
2018-05-02T12:47:56.738Z,56.10
2018-05-02T12:50:24.327Z,56.10
2018-05-02T12:52:51.893Z,57.50
2018-05-02T12:55:19.464Z,56.50
2018-05-02T12:57:47.007Z,58.00
2018-05-02T13:00:14.582Z,57.80
2018-05-02T13:02:42.146Z,56.40
2018-05-02T13:05:09.720Z,58.40
2018-05-02T13:07:37.292Z,56.80
2018-05-02T13:10:04.863Z,57.10
2018-05-02T13:12:32.410Z,56.90
2018-05-02T13:15:00.749Z,59.10
2018-05-02T13:17:28.295Z,59.60
2018-05-02T13:19:55.878Z,65.30
2018-05-02T13:22:23.450Z,64.60
2018-05-02T13:24:51.028Z,65.40
2018-05-02T13:27:18.594Z,60.80
2018-05-02T13:29:46.155Z,67.60
2018-05-02T13:32:13.704Z,63.30
2018-05-02T13:34:41.283Z,65.70
2018-05-02T13:37:09.597Z,63.70
2018-05-02T13:39:37.151Z,63.70
2018-05-02T13:42:05.498Z,61.90
2018-05-02T13:44:33.816Z,64.80
2018-05-02T13:47:02.151Z,63.90
2018-05-02T13:49:29.699Z,63.90
2018-05-02T13:51:57.278Z,65.20
2018-05-02T13:54:24.836Z,65.70
2018-05-02T13:56:53.176Z,68.70
2018-05-02T13:59:20.732Z,68.80
2018-05-02T14:01:48.294Z,70.60
2018-05-02T14:04:15.848Z,71.10
2018-05-02T14:06:43.416Z,72.70
2018-05-02T14:09:10.961Z,71.80
2018-05-02T14:11:38.527Z,73.30
2018-05-02T14:14:06.081Z,76.40
2018-05-02T14:16:34.413Z,79.80
2018-05-02T14:19:02.811Z,78.30
2018-05-02T14:21:30.319Z,78.20
2018-05-02T14:23:57.872Z,80.00
2018-05-02T14:26:25.444Z,76.80
2018-05-02T14:28:52.993Z,75.80
2018-05-02T14:31:21.324Z,74.30
2018-05-02T14:33:48.872Z,74.40
2018-05-02T14:36:16.445Z,74.80
2018-05-02T14:38:43.995Z,75.00
2018-05-02T14:41:12.328Z,76.00
2018-05-02T14:43:39.891Z,76.10
2018-05-02T14:46:07.455Z,77.30
2018-05-02T14:48:34.996Z,77.70
2018-05-02T14:51:03.331Z,80.40
2018-05-02T14:53:31.656Z,84.20
2018-05-02T14:55:59.983Z,82.90
2018-05-02T14:58:27.568Z,83.00
2018-05-02T15:00:55.116Z,82.90
2018-05-02T15:03:22.683Z,74.00
2018-05-02T15:05:51.001Z,67.40
2018-05-02T15:08:18.599Z,67.30
2018-05-02T15:10:46.154Z,63.10
2018-05-02T15:13:13.724Z,65.40
2018-05-02T15:15:41.274Z,61.00
2018-05-02T15:18:08.840Z,64.00
2018-05-02T15:20:36.392Z,58.50
2018-05-02T15:23:04.733Z,53.60
2018-05-02T15:25:32.283Z,53.60
2018-05-02T15:27:59.857Z,54.30
2018-05-02T15:30:27.407Z,56.00
2018-05-02T15:32:55.766Z,57.80
2018-05-02T15:35:23.376Z,57.70
2018-05-02T15:37:50.959Z,61.10
2018-05-02T15:40:18.599Z,62.70
2018-05-02T15:42:46.212Z,62.80
2018-05-02T15:45:13.767Z,66.40
2018-05-02T15:47:42.128Z,69.00
2018-05-02T15:50:09.675Z,68.90
2018-05-02T15:52:37.243Z,70.80
2018-05-02T15:55:04.813Z,70.30
2018-05-02T15:57:32.403Z,70.40
2018-05-02T15:59:59.955Z,70.30
2018-05-02T16:02:27.536Z,70.40
2018-05-02T16:04:55.849Z,74.80
2018-05-02T16:07:23.472Z,74.90
2018-05-02T16:09:51.177Z,74.10
2018-05-02T16:12:18.751Z,76.90
2018-05-02T16:14:46.319Z,78.80
2018-05-02T16:17:13.880Z,76.70
2018-05-02T16:19:41.465Z,77.30
2018-05-02T16:22:09.020Z,77.70
2018-05-02T16:24:36.611Z,78.00
2018-05-02T16:27:04.181Z,76.80
2018-05-02T16:29:31.772Z,76.30
2018-05-02T16:31:59.360Z,77.20
2018-05-02T16:34:27.773Z,80.40
2018-05-02T16:36:55.356Z,80.40
2018-05-02T16:39:22.960Z,80.80
2018-05-02T16:41:50.547Z,80.70
2018-05-02T16:44:18.912Z,81.90
2018-05-02T16:46:46.472Z,81.80
2018-05-02T16:49:14.053Z,81.20
2018-05-02T16:51:41.616Z,81.30
2018-05-02T16:54:09.958Z,85.00
2018-05-02T16:56:38.338Z,83.60
2018-05-02T16:59:05.900Z,83.60
2018-05-02T17:01:33.480Z,84.60
2018-05-02T17:04:01.099Z,86.00
2018-05-02T17:06:28.684Z,87.20
2018-05-02T17:08:56.247Z,86.90
2018-05-02T17:11:23.810Z,86.80
2018-05-02T17:13:51.394Z,85.30
2018-05-02T17:16:18.958Z,85.30
2018-05-02T17:18:46.537Z,84.10
2018-05-02T17:21:14.111Z,85.60
2018-05-02T17:23:41.689Z,85.80
2018-05-02T17:26:09.256Z,86.40
2018-05-02T17:28:36.840Z,85.80
2018-05-02T17:31:04.483Z,86.30
2018-05-02T17:33:32.052Z,87.00
2018-05-02T17:35:59.632Z,85.50
2018-05-02T17:38:27.299Z,89.40
2018-05-02T17:40:54.911Z,90.80
2018-05-02T17:43:22.509Z,90.80
2018-05-02T17:45:50.089Z,91.40
2018-05-02T17:48:18.432Z,91.90
2018-05-02T17:50:46.006Z,91.90
2018-05-02T17:53:13.589Z,91.90
2018-05-02T17:55:41.184Z,92.30
2018-05-02T17:58:08.819Z,91.40
2018-05-02T18:00:36.452Z,91.80
2018-05-02T18:03:04.011Z,91.50
2018-05-02T18:05:31.616Z,91.60
2018-05-02T18:07:59.205Z,92.10
2018-05-02T18:10:26.916Z,92.70
2018-05-02T18:12:54.449Z,93.30
2018-05-02T18:15:22.060Z,94.00
2018-05-02T18:17:49.644Z,94.50
2018-05-02T18:20:18.014Z,95.20
2018-05-02T18:22:45.677Z,95.20
2018-05-02T18:25:13.211Z,95.00
2018-05-02T18:27:40.771Z,95.00
2018-05-02T18:30:08.344Z,95.20
2018-05-02T18:32:35.892Z,95.30
2018-05-02T18:35:03.488Z,95.60
2018-05-02T18:37:31.038Z,95.70
2018-05-02T18:39:59.367Z,95.90
2018-05-02T18:42:26.960Z,95.90
2018-05-02T18:44:54.509Z,96.20
2018-05-02T18:47:22.076Z,96.50
2018-05-02T18:49:49.631Z,96.50
2018-05-02T18:52:17.210Z,96.70
2018-05-02T18:54:44.786Z,96.90
2018-05-02T18:57:12.348Z,97.40
2018-05-02T18:59:39.903Z,97.40
2018-05-02T19:02:08.286Z,97.40
2018-05-02T19:04:35.837Z,97.30
2018-05-02T19:07:03.431Z,97.50
2018-05-02T19:09:31.751Z,98.00
2018-05-02T19:11:59.320Z,97.70
2018-05-02T19:14:27.007Z,97.70
2018-05-02T19:16:54.591Z,97.90
2018-05-02T19:19:27.804Z,97.80
2018-05-02T19:21:55.368Z,98.00
2018-05-02T19:24:22.918Z,98.20
2018-05-02T19:26:50.592Z,98.20
2018-05-02T19:29:18.171Z,98.60
2018-05-02T19:31:51.616Z,98.60
2018-05-02T19:34:19.175Z,98.60
2018-05-02T19:36:46.744Z,98.30
2018-05-02T19:39:14.303Z,98.60
2018-05-02T19:41:47.624Z,98.60
2018-05-02T19:44:15.190Z,99.10
2018-05-02T19:46:43.540Z,99.90
2018-05-02T19:49:11.884Z,99.90
2018-05-02T19:51:45.835Z,99.90
2018-05-02T19:54:13.405Z,99.90
2018-05-02T19:56:40.968Z,99.80
2018-05-02T19:59:08.545Z,99.80
2018-05-02T20:01:42.255Z,99.70
2018-05-02T20:04:09.896Z,99.80
2018-05-02T20:06:37.452Z,99.90
2018-05-02T20:09:11.408Z,99.90
2018-05-02T20:11:44.660Z,99.90
2018-05-02T20:14:12.995Z,99.90
2018-05-02T20:16:40.540Z,99.90
2018-05-02T20:19:08.118Z,99.90
2018-05-02T20:21:35.675Z,99.90
2018-05-02T20:24:03.262Z,99.90
2018-05-02T20:26:30.816Z,99.90
2018-05-02T20:28:59.150Z,99.90
2018-05-02T20:31:26.699Z,99.90
2018-05-02T20:33:56.079Z,99.90
2018-05-02T20:36:24.745Z,99.90
2018-05-02T20:38:52.260Z,99.90
2018-05-02T20:41:19.804Z,99.90
2018-05-02T20:43:47.424Z,99.90
2018-05-02T20:46:15.725Z,99.90
2018-05-02T20:48:43.296Z,99.90
2018-05-02T20:51:10.847Z,99.90
2018-05-02T20:53:39.172Z,99.90
2018-05-02T20:56:06.721Z,99.90
2018-05-02T20:58:34.292Z,99.90
2018-05-02T21:01:01.845Z,99.90
2018-05-02T21:03:29.436Z,99.90
2018-05-02T21:05:56.978Z,99.90
2018-05-02T21:08:25.292Z,99.90
2018-05-02T21:10:52.873Z,99.90
2018-05-02T21:13:20.431Z,99.90
2018-05-02T21:15:47.991Z,99.90
2018-05-02T21:18:16.312Z,99.90
2018-05-02T21:20:43.891Z,99.90
2018-05-02T21:23:11.464Z,99.90
2018-05-02T21:25:39.036Z,99.90
2018-05-02T21:28:06.600Z,99.90
2018-05-02T21:30:34.168Z,99.90
2018-05-02T21:33:01.722Z,99.90
2018-05-02T21:35:29.283Z,99.90
2018-05-02T21:37:57.594Z,99.90
2018-05-02T21:40:25.169Z,99.90
2018-05-02T21:42:52.720Z,99.90
2018-05-02T21:45:20.313Z,99.90
2018-05-02T21:47:47.897Z,99.90
2018-05-02T21:50:15.466Z,99.90
2018-05-02T21:52:43.017Z,99.90
2018-05-02T21:55:10.612Z,99.90
2018-05-02T21:57:38.173Z,99.90
2018-05-02T22:00:05.757Z,99.90
2018-05-02T22:02:33.304Z,99.90
2018-05-02T22:05:00.873Z,99.90
2018-05-02T22:07:28.419Z,99.90
2018-05-02T22:09:56.759Z,99.90
2018-05-02T22:12:24.312Z,99.90
2018-05-02T22:14:51.886Z,99.90
2018-05-02T22:17:19.431Z,99.90
2018-05-02T22:19:47.768Z,99.90
2018-05-02T22:22:15.320Z,99.90
2018-05-02T22:24:42.867Z,99.90
2018-05-02T22:27:11.203Z,99.90
2018-05-02T22:29:38.756Z,99.90
2018-05-02T22:32:06.333Z,99.90
2018-05-02T22:34:33.890Z,99.90
2018-05-02T22:37:01.456Z,99.90
2018-05-02T22:39:29.272Z,99.90
2018-05-02T22:41:56.836Z,99.90
2018-05-02T22:44:25.156Z,99.90
2018-05-02T22:46:52.728Z,99.90
2018-05-02T22:49:20.280Z,99.90
2018-05-02T22:51:47.844Z,99.90
2018-05-02T22:54:16.160Z,99.90
2018-05-02T22:56:43.728Z,99.90
2018-05-02T22:59:12.067Z,99.90
2018-05-02T23:01:39.624Z,99.90
2018-05-02T23:04:07.176Z,99.90
2018-05-02T23:06:35.504Z,99.90
2018-05-02T23:09:03.060Z,99.90
2018-05-02T23:11:30.624Z,99.90
2018-05-02T23:13:58.932Z,99.90
2018-05-02T23:16:26.496Z,99.90
2018-05-02T23:18:54.045Z,99.90
2018-05-02T23:21:22.375Z,99.90
2018-05-02T23:23:49.924Z,99.90
2018-05-02T23:26:17.492Z,99.90
2018-05-02T23:28:45.040Z,99.90
2018-05-02T23:31:13.385Z,99.90
2018-05-02T23:33:40.936Z,99.90
2018-05-02T23:36:08.500Z,99.90
2018-05-02T23:38:36.052Z,99.90
2018-05-02T23:41:04.364Z,99.90
2018-05-02T23:43:31.932Z,99.90
2018-05-02T23:45:59.479Z,99.90
2018-05-02T23:48:27.809Z,99.90
2018-05-02T23:50:55.352Z,99.90
2018-05-02T23:53:23.680Z,99.90
2018-05-02T23:55:51.223Z,99.90
2018-05-02T23:58:18.792Z,99.90
